Time;durP1;ratioP1;P1;durP2;ratioP2;P2;SDS_P1;SDS_P2;PMS_P1;PMS_P2;Temp;Humidity;BMP_temperature;BMP_pressure;BME280_temperature;BME280_humidity;BME280_pressure;Samples;Min_cycle;Max_cycle;Signal;HPM_P1;HPM_P2
2023/09/04 00:02:02;;;;;;;23.35;11.35;;;;;;;15.17;100.00;99881.94;5076241;28;20047;-39
2023/09/04 00:04:28;;;;;;;23.65;11.80;;;;;;;15.27;100.00;99906.75;5074105;28;20059;-39
2023/09/04 00:06:54;;;;;;;21.98;11.98;;;;;;;15.25;100.00;99903.34;5066879;28;20046;-40
2023/09/04 00:09:20;;;;;;;26.38;12.30;;;;;;;15.23;100.00;99905.19;5065898;28;20037;-39
2023/09/04 00:11:46;;;;;;;20.45;11.48;;;;;;;15.25;100.00;99902.50;5053491;28;20048;-40
2023/09/04 00:14:12;;;;;;;19.50;11.35;;;;;;;15.22;100.00;99895.66;5061475;28;20040;-40
2023/09/04 00:16:39;;;;;;;21.77;11.70;;;;;;;15.20;100.00;99909.75;5071854;28;20043;-39
2023/09/04 00:19:05;;;;;;;20.70;11.40;;;;;;;15.16;100.00;99902.97;5071061;28;20496;-39
2023/09/04 00:21:31;;;;;;;18.90;11.23;;;;;;;15.12;100.00;99906.66;5069113;28;20131;-40
2023/09/04 00:23:57;;;;;;;23.35;11.45;;;;;;;15.03;100.00;99889.63;5058129;28;20044;-40
2023/09/04 00:26:22;;;;;;;18.45;11.00;;;;;;;15.05;100.00;99897.41;5070244;28;20051;-39
2023/09/04 00:28:49;;;;;;;21.77;11.35;;;;;;;14.98;100.00;99898.63;5069737;28;20205;-39
2023/09/04 00:31:14;;;;;;;19.02;11.18;;;;;;;15.00;100.00;99902.03;5072439;28;20416;-39
2023/09/04 00:33:40;;;;;;;20.33;11.57;;;;;;;14.96;100.00;99898.72;5068731;28;20047;-39
2023/09/04 00:36:06;;;;;;;21.50;10.88;;;;;;;14.94;100.00;99905.78;5074866;28;20117;-39
2023/09/04 00:38:32;;;;;;;21.23;11.63;;;;;;;14.93;100.00;99893.63;5073945;28;20697;-39
2023/09/04 00:40:58;;;;;;;21.55;11.35;;;;;;;14.93;100.00;99900.63;5068252;28;20041;-40
2023/09/04 00:43:24;;;;;;;17.23;11.13;;;;;;;14.92;100.00;99901.53;5079337;28;20040;-40
2023/09/04 00:45:49;;;;;;;26.15;11.27;;;;;;;14.66;100.00;99863.53;5072397;28;20060;-40
2023/09/04 00:48:15;;;;;;;21.00;11.32;;;;;;;14.88;100.00;99900.00;5079331;28;20088;-38
2023/09/04 00:50:42;;;;;;;22.58;11.70;;;;;;;14.87;100.00;99903.53;5063793;28;20053;-39
2023/09/04 00:53:10;;;;;;;26.70;12.82;;;;;;;14.85;100.00;99893.16;5060419;28;20040;-40
2023/09/04 00:55:37;;;;;;;20.75;12.35;;;;;;;14.87;100.00;99898.28;5070443;28;20040;-39
2023/09/04 00:58:05;;;;;;;19.20;11.43;;;;;;;14.86;100.00;99901.84;5063650;28;20040;-39
2023/09/04 01:00:30;;;;;;;19.88;11.57;;;;;;;14.86;100.00;99901.84;5068740;28;20103;-40
2023/09/04 01:02:59;;;;;;;18.73;11.15;;;;;;;14.65;100.00;99872.34;5074745;28;20041;-39
2023/09/04 01:05:28;;;;;;;20.90;11.05;;;;;;;14.81;100.00;99894.22;5070659;28;20062;-40
2023/09/04 01:07:54;;;;;;;25.38;11.30;;;;;;;14.79;100.00;99903.91;5068833;28;20044;-39
2023/09/04 01:10:21;;;;;;;23.42;12.27;;;;;;;14.78;100.00;99903.06;5074662;28;20051;-39
2023/09/04 01:12:55;;;;;;;20.65;11.63;;;;;;;14.77;100.00;99911.84;5074123;28;20467;-39
2023/09/04 01:15:24;;;;;;;19.98;11.25;;;;;;;14.75;100.00;99892.75;5064716;28;20070;-39
2023/09/04 01:17:51;;;;;;;22.10;11.63;;;;;;;14.45;100.00;99846.25;5070284;28;20037;-40
2023/09/04 01:20:28;;;;;;;20.05;12.07;;;;;;;14.77;100.00;99901.38;5080185;28;20044;-48
2023/09/04 01:22:56;;;;;;;19.65;12.02;;;;;;;14.78;100.00;99897.81;5069363;28;20123;-39
2023/09/04 01:25:28;;;;;;;17.90;11.45;;;;;;;14.77;100.00;99901.38;5080527;28;20027;-39
2023/09/04 01:28:08;;;;;;;23.25;11.95;;;;;;;14.70;100.00;99886.03;5069403;28;20044;-39
2023/09/04 01:30:52;;;;;;;22.05;12.05;;;;;;;14.72;100.00;99897.28;5078973;28;20044;-39
2023/09/04 01:33:24;;;;;;;21.90;11.38;;;;;;;14.74;100.00;99903.28;5054610;28;20049;-39
2023/09/04 01:35:50;;;;;;;19.23;11.85;;;;;;;14.72;100.00;99902.50;5070300;28;20045;-39
2023/09/04 01:38:18;;;;;;;21.73;11.88;;;;;;;14.72;100.00;99907.75;5072984;28;20127;-39
2023/09/04 01:40:44;;;;;;;22.98;12.77;;;;;;;14.71;100.00;99898.19;5072998;28;20134;-40
2023/09/04 01:43:10;;;;;;;19.75;12.07;;;;;;;14.68;100.00;99899.19;5053761;28;20523;-39
2023/09/04 01:45:36;;;;;;;16.95;11.73;;;;;;;14.52;100.00;99868.59;5060707;28;20051;-40
2023/09/04 01:48:02;;;;;;;23.70;11.70;;;;;;;14.63;100.00;99888.09;5072603;28;20544;-41
2023/09/04 01:50:28;;;;;;;24.55;12.07;;;;;;;14.67;100.00;99904.50;5074486;28;20421;-39
2023/09/04 01:52:53;;;;;;;20.55;11.70;;;;;;;14.51;100.00;99869.50;5076207;28;20071;-39
2023/09/04 01:55:19;;;;;;;21.17;12.23;;;;;;;14.65;100.00;99898.50;5070565;28;20440;-39
2023/09/04 01:57:45;;;;;;;19.85;11.45;;;;;;;14.64;100.00;99902.03;5052003;28;20032;-39
2023/09/04 02:00:11;;;;;;;18.65;11.95;;;;;;;14.59;100.00;99894.41;5069417;28;20591;-40
2023/09/04 02:02:41;;;;;;;18.40;11.48;;;;;;;14.46;100.00;99876.72;5078456;28;20158;-39
2023/09/04 02:05:07;;;;;;;23.02;11.48;;;;;;;14.60;100.00;99900.50;5079331;28;20136;-39
2023/09/04 02:07:34;;;;;;;17.73;11.52;;;;;;;14.62;100.00;99906.47;5055064;28;20122;-40
2023/09/04 02:10:00;;;;;;;19.60;12.27;;;;;;;14.57;100.00;99901.47;5069848;28;20144;-39
2023/09/04 02:12:26;;;;;;;25.95;13.23;;;;;;;14.52;100.00;99897.38;5078418;28;20048;-40
2023/09/04 02:14:52;;;;;;;24.67;11.30;;;;;;;14.59;100.00;99917.09;5079078;28;20504;-39
2023/09/04 02:17:18;;;;;;;25.25;12.73;;;;;;;14.41;100.00;99890.03;5076645;28;20071;-40
2023/09/04 02:19:44;;;;;;;21.05;11.52;;;;;;;14.38;100.00;99898.88;5069006;28;20037;-40
2023/09/04 02:22:09;;;;;;;20.73;11.40;;;;;;;14.52;100.00;99918.31;5078032;28;20530;-38
2023/09/04 02:24:35;;;;;;;21.38;10.75;;;;;;;14.52;100.00;99932.22;5063564;28;20511;-40
2023/09/04 02:27:01;;;;;;;20.00;11.45;;;;;;;14.53;100.00;99939.16;5074808;28;20036;-39
2023/09/04 02:29:29;;;;;;;20.48;11.75;;;;;;;14.54;100.00;99930.41;5065830;28;20450;-39
2023/09/04 02:31:55;;;;;;;17.85;11.30;;;;;;;14.54;100.00;99933.03;5078615;28;20044;-40
2023/09/04 02:34:21;;;;;;;20.77;11.27;;;;;;;14.37;100.00;99918.09;5076153;28;20451;-40
2023/09/04 02:36:47;;;;;;;20.65;11.25;;;;;;;14.34;100.00;99909.53;5077352;28;20040;-39
2023/09/04 02:39:13;;;;;;;17.38;11.07;;;;;;;14.37;100.00;99914.63;5046640;28;20040;-39
2023/09/04 02:41:39;;;;;;;19.10;11.15;;;;;;;14.57;100.00;99950.34;5075343;28;20044;-39
2023/09/04 02:44:05;;;;;;;18.83;11.10;;;;;;;14.53;100.00;99949.63;5052663;28;20059;-40
2023/09/04 02:46:32;;;;;;;21.45;11.75;;;;;;;14.56;100.00;99952.09;5055362;28;20425;-40
2023/09/04 02:48:58;;;;;;;18.33;11.60;;;;;;;14.56;100.00;99956.47;5065944;28;20040;-40
2023/09/04 02:51:24;;;;;;;24.10;11.60;;;;;;;14.56;100.00;99959.94;5066063;28;20051;-40
2023/09/04 02:53:50;;;;;;;25.58;12.63;;;;;;;14.27;100.00;99910.72;5078594;28;20040;-40
2023/09/04 02:56:16;;;;;;;19.75;10.75;;;;;;;14.41;100.00;99937.09;5077181;28;20127;-39
2023/09/04 02:58:42;;;;;;;19.17;10.68;;;;;;;14.54;100.00;99955.72;5061705;28;20388;-40
2023/09/04 03:01:08;;;;;;;17.88;9.73;;;;;;;14.53;100.00;99956.63;5092517;28;20045;-40
2023/09/04 03:03:35;;;;;;;18.65;10.45;;;;;;;14.53;100.00;99956.63;5074663;28;20053;-39
2023/09/04 03:06:11;;;;;;;22.63;10.32;;;;;;;14.54;100.00;99956.56;5072940;28;20033;-39
2023/09/04 03:08:40;;;;;;;15.18;9.60;;;;;;;14.53;100.00;99959.25;5063183;28;20040;-41
2023/09/04 03:11:10;;;;;;;17.20;9.40;;;;;;;14.28;100.00;99922.88;5029981;28;20043;-39
2023/09/04 03:13:36;;;;;;;;;;;;;;;14.54;100.00;99961.81;5047127;28;20565;-39
2023/09/04 03:16:04;;;;;;;19.52;8.70;;;;;;;14.50;100.00;99978.53;5065529;28;19920;-39
2023/09/04 03:18:29;;;;;;;16.67;9.07;;;;;;;14.50;100.00;99972.47;5064038;28;20032;-39
2023/09/04 03:20:56;;;;;;;17.40;9.05;;;;;;;14.51;100.00;99968.91;5069883;28;20048;-39
2023/09/04 03:23:22;;;;;;;13.25;9.20;;;;;;;14.52;100.00;99968.00;5071826;28;20199;-39
2023/09/04 03:25:47;;;;;;;15.32;9.77;;;;;;;14.53;100.00;99973.19;5072300;28;20149;-39
2023/09/04 03:28:13;;;;;;;21.17;8.77;;;;;;;14.56;100.00;99978.25;5067007;28;20036;-40
2023/09/04 03:30:39;;;;;;;14.05;8.30;;;;;;;14.58;100.00;99975.59;5065559;28;20641;-40
2023/09/04 03:33:07;;;;;;;15.00;9.13;;;;;;;14.54;100.00;99974.88;5052980;28;20032;-40
2023/09/04 03:35:33;;;;;;;17.73;9.07;;;;;;;14.61;100.00;99986.75;5079498;28;20469;-39
2023/09/04 03:37:59;;;;;;;11.85;8.48;;;;;;;14.46;100.00;99963.06;5033770;28;20076;-39
2023/09/04 03:40:26;;;;;;;15.98;9.05;;;;;;;14.65;100.00;99992.72;5076661;28;20503;-39
2023/09/04 03:42:53;;;;;;;14.57;8.05;;;;;;;14.69;100.00;99994.25;5058296;28;20032;-39
2023/09/04 03:45:19;;;;;;;14.13;9.10;;;;;;;14.72;100.00;99994.97;5068219;28;20040;-39
2023/09/04 03:47:46;;;;;;;13.43;8.85;;;;;;;14.75;100.00;99994.84;5072055;28;20071;-39
2023/09/04 03:50:12;;;;;;;14.80;8.70;;;;;;;14.78;100.00;99988.59;5048340;28;20035;-40
2023/09/04 03:52:39;;;;;;;15.57;9.05;;;;;;;14.85;100.00;99995.25;5072608;28;20170;-39
2023/09/04 03:55:07;;;;;;;14.07;8.90;;;;;;;14.89;100.00;99991.56;5077677;28;20044;-39
2023/09/04 03:57:34;;;;;;;16.10;9.30;;;;;;;14.94;100.00;100002.66;5065413;28;20051;-41
2023/09/04 04:00:14;;;;;;;15.23;9.25;;;;;;;14.99;100.00;99998.06;5068728;28;20092;-40
2023/09/04 04:02:48;;;;;;;14.18;8.70;;;;;;;15.02;100.00;99997.91;5028187;28;20135;-40
2023/09/04 04:05:15;;;;;;;13.70;8.43;;;;;;;15.06;100.00;100001.25;5077180;28;20048;-39
2023/09/04 04:07:42;;;;;;;17.83;9.43;;;;;;;15.10;100.00;99995.78;5078472;28;20036;-39
2023/09/04 04:10:08;;;;;;;14.05;8.27;;;;;;;15.17;100.00;100004.19;5070892;28;20044;-40
2023/09/04 04:12:35;;;;;;;13.82;8.38;;;;;;;15.22;100.00;100000.44;5068039;28;20048;-40
2023/09/04 04:15:06;;;;;;;17.10;8.23;;;;;;;15.28;99.59;99994.88;5073082;28;20126;-39
2023/09/04 04:17:33;;;;;;;16.02;7.82;;;;;;;15.33;99.20;99992.06;5072065;28;20036;-40
2023/09/04 04:19:59;;;;;;;20.65;10.27;;;;;;;15.41;98.96;99999.53;5074723;28;20039;-40
2023/09/04 04:22:25;;;;;;;17.48;8.43;;;;;;;15.45;98.32;100009.78;5064504;28;20059;-41
2023/09/04 04:24:51;;;;;;;15.02;8.15;;;;;;;15.50;98.46;99999.06;5062518;28;20052;-39
2023/09/04 04:27:17;;;;;;;13.95;8.50;;;;;;;15.55;97.96;100003.19;5038923;28;20044;-40
2023/09/04 04:29:44;;;;;;;16.83;8.30;;;;;;;15.61;97.91;100002.03;5069699;28;20092;-40
2023/09/04 04:32:10;;;;;;;18.90;9.98;;;;;;;15.53;97.49;99976.22;5077827;28;20066;-42
2023/09/04 04:34:36;;;;;;;18.20;7.32;;;;;;;15.74;97.26;100000.53;5055703;28;20515;-40
2023/09/04 04:37:04;;;;;;;14.20;7.40;;;;;;;15.82;96.57;100010.59;5072909;28;20044;-40
2023/09/04 04:39:30;;;;;;;12.48;7.95;;;;;;;15.89;95.54;100009.38;5075163;28;20044;-39
2023/09/04 04:41:57;;;;;;;12.30;7.38;;;;;;;15.96;95.00;100013.41;5076604;28;20134;-39
2023/09/04 04:44:23;;;;;;;14.38;7.68;;;;;;;16.01;94.40;100009.63;5055357;28;20044;-39
2023/09/04 04:46:49;;;;;;;15.88;7.18;;;;;;;16.09;93.41;100003.94;5074314;28;20244;-39
2023/09/04 04:49:20;;;;;;;12.75;7.53;;;;;;;16.19;93.08;100015.66;5080038;28;20100;-40
2023/09/04 04:51:46;;;;;;;14.80;7.90;;;;;;;16.27;92.46;100010.88;5073112;28;20128;-40
2023/09/04 04:54:12;;;;;;;14.27;7.30;;;;;;;16.36;92.45;100014.78;5071858;28;20040;-40
2023/09/04 04:56:39;;;;;;;16.55;7.38;;;;;;;16.45;92.18;100009.03;5064880;28;20317;-39
2023/09/04 04:59:07;;;;;;;16.13;7.32;;;;;;;16.54;91.85;100016.41;5073456;28;20044;-39
2023/09/04 05:01:34;;;;;;;11.35;7.32;;;;;;;16.61;91.30;100011.72;5063509;28;20526;-40
2023/09/04 05:04:00;;;;;;;9.95;7.30;;;;;;;16.73;90.79;100009.31;5075305;28;20055;-40
2023/09/04 05:06:26;;;;;;;11.75;7.10;;;;;;;16.83;90.29;100007.88;5035823;28;20040;-40
2023/09/04 05:08:52;;;;;;;16.73;7.38;;;;;;;16.95;89.39;100008.97;5078483;28;20734;-40
2023/09/04 05:11:18;;;;;;;16.35;7.30;;;;;;;17.05;88.97;100004.91;5082059;28;20044;-40
2023/09/04 05:13:44;;;;;;;11.35;7.20;;;;;;;17.08;88.36;99999.47;5066940;28;20473;-41
2023/09/04 05:16:10;;;;;;;13.63;7.07;;;;;;;17.28;87.27;100007.06;5059365;28;20048;-40
2023/09/04 05:18:38;;;;;;;13.93;7.20;;;;;;;17.37;85.80;99992.56;5065617;28;20044;-39
2023/09/04 05:21:06;;;;;;;8.68;6.32;;;;;;;17.42;84.84;99985.28;5064054;28;20051;-41
2023/09/04 05:23:33;;;;;;;8.98;6.25;;;;;;;17.66;83.46;100009.31;5055404;28;20040;-41
2023/09/04 05:25:59;;;;;;;11.35;7.25;;;;;;;17.57;82.61;99970.38;5066714;28;20570;-42
2023/09/04 05:28:26;;;;;;;10.25;6.28;;;;;;;17.91;81.94;100006.94;5080930;28;20136;-44
2023/09/04 05:30:52;;;;;;;10.63;6.10;;;;;;;18.04;80.73;100000.03;5075547;28;20106;-42
2023/09/04 05:33:18;;;;;;;10.48;6.32;;;;;;;18.05;79.99;99980.66;5078509;28;20523;-41
2023/09/04 05:35:43;;;;;;;12.98;6.90;;;;;;;18.31;79.25;100004.56;5080555;28;20037;-43
2023/09/04 05:38:09;;;;;;;8.50;5.38;;;;;;;18.42;78.53;100002.94;5080464;28;20041;-40
2023/09/04 05:40:35;;;;;;;10.32;5.95;;;;;;;18.52;77.81;100014.63;5082138;28;20420;-40
2023/09/04 05:43:01;;;;;;;13.38;6.45;;;;;;;18.61;76.98;100000.06;5084508;28;20126;-40
2023/09/04 05:45:27;;;;;;;12.95;5.80;;;;;;;18.74;76.48;100005.38;5077992;28;20054;-41
2023/09/04 05:47:53;;;;;;;9.57;5.72;;;;;;;18.88;75.55;99994.84;5084581;28;20533;-41
2023/09/04 05:50:19;;;;;;;12.05;7.05;;;;;;;19.16;74.90;100001.81;5061027;28;20043;-41
2023/09/04 05:52:44;;;;;;;16.65;9.02;;;;;;;19.38;74.15;100004.75;5070239;28;20049;-40
2023/09/04 05:55:10;;;;;;;10.05;5.95;;;;;;;19.59;73.55;100003.38;5064354;28;20041;-40
2023/09/04 05:57:36;;;;;;;9.18;5.70;;;;;;;19.74;72.82;99990.97;5059126;28;20036;-40
2023/09/04 06:00:06;;;;;;;11.63;5.88;;;;;;;20.31;71.73;99999.34;5072405;28;20044;-47
2023/09/04 06:02:39;;;;;;;11.45;5.22;;;;;;;21.03;69.17;99997.75;5076727;28;20465;-41
2023/09/04 06:05:05;;;;;;;9.25;5.20;;;;;;;21.74;66.37;99997.75;5068135;28;20056;-40
2023/09/04 06:07:32;;;;;;;12.68;5.88;;;;;;;22.45;63.76;99985.25;5036039;28;20044;-42
2023/09/04 06:09:58;;;;;;;8.85;4.18;;;;;;;23.22;61.66;99977.22;5067735;28;20044;-40
2023/09/04 06:12:24;;;;;;;9.00;3.70;;;;;;;24.18;59.45;99992.25;5051641;28;20507;-41
2023/09/04 06:14:50;;;;;;;5.72;3.70;;;;;;;25.04;57.08;99986.41;5067694;28;20181;-40
2023/09/04 06:17:16;;;;;;;8.10;3.58;;;;;;;25.87;54.63;99991.22;5064900;28;20150;-42
2023/09/04 06:19:42;;;;;;;12.75;3.67;;;;;;;26.72;51.77;100002.63;5073141;28;20196;-41
2023/09/04 06:22:08;;;;;;;8.55;3.40;;;;;;;27.42;49.48;99982.41;5073789;28;20056;-41
2023/09/04 06:24:34;;;;;;;6.05;3.70;;;;;;;28.31;47.41;99990.31;5072066;28;20048;-41
2023/09/04 06:27:00;;;;;;;6.40;3.35;;;;;;;29.21;44.96;99997.69;5039150;28;20071;-41
2023/09/04 06:29:25;;;;;;;9.18;3.42;;;;;;;29.88;42.99;99991.28;5064150;28;20424;-45
2023/09/04 06:31:51;;;;;;;5.22;2.97;;;;;;;30.59;40.57;100003.91;5073732;28;20051;-44
2023/09/04 06:34:17;;;;;;;5.72;3.15;;;;;;;31.22;39.18;100002.97;5071863;28;20028;-42
2023/09/04 06:36:43;;;;;;;8.93;3.90;;;;;;;31.98;37.72;100001.03;5076266;28;20040;-42
2023/09/04 06:39:09;;;;;;;5.95;4.30;;;;;;;32.58;36.76;100004.63;5073920;28;20047;-43
2023/09/04 06:41:35;;;;;;;8.20;3.60;;;;;;;33.19;35.48;100014.16;5068357;28;20416;-44
2023/09/04 06:44:02;;;;;;;10.30;4.50;;;;;;;33.83;34.37;100003.41;5065709;28;20044;-44
2023/09/04 06:46:28;;;;;;;7.72;4.28;;;;;;;34.49;33.14;100012.88;5082402;28;20051;-44
2023/09/04 06:48:54;;;;;;;7.50;3.67;;;;;;;34.73;32.80;100014.25;5084626;28;20423;-43
2023/09/04 06:51:20;;;;;;;8.15;3.83;;;;;;;34.42;32.21;100014.69;5075562;28;20040;-44
2023/09/04 06:53:46;;;;;;;4.28;3.50;;;;;;;34.29;31.87;100014.56;5071825;28;20516;-42
2023/09/04 06:56:12;;;;;;;8.15;3.08;;;;;;;34.56;31.18;100020.97;5064648;28;20042;-42
2023/09/04 06:58:37;;;;;;;7.45;4.35;;;;;;;34.45;31.16;100004.31;5064290;28;20040;-44
2023/09/04 07:01:04;;;;;;;4.82;3.65;;;;;;;35.23;30.39;100013.84;5083952;28;20116;-42
2023/09/04 07:03:30;;;;;;;4.50;2.83;;;;;;;36.06;29.12;100022.50;5078790;28;20044;-42
2023/09/04 07:05:57;;;;;;;4.05;2.70;;;;;;;36.72;27.82;100028.66;5075038;28;20063;-44
2023/09/04 07:08:23;;;;;;;6.00;3.30;;;;;;;36.99;27.56;100017.72;5077514;28;20068;-43
2023/09/04 07:10:49;;;;;;;4.10;2.83;;;;;;;37.32;27.14;100021.09;5072928;28;20071;-42
2023/09/04 07:13:15;;;;;;;6.32;3.28;;;;;;;37.61;26.61;100020.53;5053946;28;20289;-43
2023/09/04 07:15:41;;;;;;;7.75;3.20;;;;;;;37.84;26.21;100021.84;5076412;28;20076;-42
2023/09/04 07:18:08;;;;;;;6.75;3.08;;;;;;;37.48;26.41;100026.00;5076315;28;20570;-44
2023/09/04 07:20:33;;;;;;;7.95;3.65;;;;;;;37.02;26.85;100020.00;5048794;28;20541;-42
2023/09/04 07:22:59;;;;;;;7.93;2.97;;;;;;;36.77;27.15;100025.31;5061412;28;20049;-41
2023/09/04 07:25:25;;;;;;;8.10;3.65;;;;;;;36.23;27.38;99995.81;5057374;28;20102;-42
2023/09/04 07:27:51;;;;;;;7.60;2.80;;;;;;;36.37;27.64;100021.88;5077078;28;20053;-42
2023/09/04 07:30:17;;;;;;;5.97;2.95;;;;;;;36.38;27.57;100028.91;5071941;28;20046;-42
2023/09/04 07:32:43;;;;;;;8.65;3.22;;;;;;;36.18;27.58;100028.97;5079136;28;20130;-44
2023/09/04 07:35:09;;;;;;;6.80;3.53;;;;;;;36.13;27.25;100031.44;5069120;28;20110;-41
2023/09/04 07:37:35;;;;;;;5.90;3.15;;;;;;;36.41;27.20;100013.09;5080648;28;20046;-45
2023/09/04 07:40:04;;;;;;;7.38;3.13;;;;;;;36.96;26.43;100027.09;5062316;28;20040;-42
2023/09/04 07:42:30;;;;;;;6.22;2.15;;;;;;;37.07;25.97;100021.00;5077983;28;20519;-41
2023/09/04 07:44:56;;;;;;;4.47;2.30;;;;;;;37.13;26.34;100025.59;5046446;28;20151;-42
2023/09/04 07:47:22;;;;;;;2.70;2.40;;;;;;;37.01;26.15;100032.72;5049710;28;20071;-44
2023/09/04 07:49:48;;;;;;;4.50;2.25;;;;;;;36.84;26.21;100026.13;5065758;28;20037;-41
2023/09/04 07:52:14;;;;;;;5.40;3.22;;;;;;;36.65;26.35;100027.84;5050751;28;20040;-49
2023/09/04 07:54:41;;;;;;;8.00;2.90;;;;;;;35.87;27.07;100021.44;5080460;28;20086;-41
2023/09/04 07:57:07;;;;;;;3.83;2.60;;;;;;;35.19;27.33;100023.41;5076478;28;20051;-42
2023/09/04 07:59:33;;;;;;;4.15;2.70;;;;;;;34.62;27.92;100029.13;5055130;28;20037;-42
2023/09/04 08:01:59;;;;;;;4.78;2.08;;;;;;;34.28;28.60;100027.25;5090198;28;20598;-40
2023/09/04 08:04:25;;;;;;;4.13;2.33;;;;;;;33.79;29.60;100002.97;5071814;28;20055;-41
2023/09/04 08:06:51;;;;;;;4.43;2.25;;;;;;;33.46;29.87;99997.25;5079347;28;20042;-40
2023/09/04 08:09:17;;;;;;;6.25;2.70;;;;;;;33.45;29.89;100030.63;5074450;28;20043;-42
2023/09/04 08:11:43;;;;;;;4.28;2.50;;;;;;;33.39;30.04;100035.97;5070784;28;20032;-41
2023/09/04 08:14:09;;;;;;;4.40;2.10;;;;;;;33.63;30.10;100038.28;5075306;28;20500;-40
2023/09/04 08:16:35;;;;;;;2.88;2.25;;;;;;;34.00;28.89;100018.28;5082167;28;20032;-40
2023/09/04 08:19:01;;;;;;;5.72;2.20;;;;;;;35.02;28.14;100026.63;5067970;28;20048;-42
2023/09/04 08:21:27;;;;;;;5.15;2.67;;;;;;;35.80;27.37;100030.63;5066643;28;20153;-41
2023/09/04 08:23:53;;;;;;;5.35;2.30;;;;;;;36.48;26.33;100023.94;5058512;28;20051;-47
2023/09/04 08:26:19;;;;;;;6.07;3.25;;;;;;;37.40;25.76;100028.16;5066676;28;20037;-43
2023/09/04 08:28:44;;;;;;;8.35;2.80;;;;;;;37.98;25.18;100032.34;5065659;28;20041;-41
2023/09/04 08:31:10;;;;;;;3.90;2.50;;;;;;;38.37;24.80;100033.03;5073212;28;20047;-42
2023/09/04 08:33:36;;;;;;;4.10;2.03;;;;;;;38.38;23.95;100037.44;5071942;28;20066;-43
2023/09/04 08:36:02;;;;;;;3.95;2.05;;;;;;;37.54;24.31;100016.16;5074772;28;20037;-43
2023/09/04 08:38:28;;;;;;;3.00;2.35;;;;;;;37.84;24.35;100027.25;5061905;28;20053;-43
2023/09/04 08:40:56;;;;;;;3.53;2.53;;;;;;;37.71;24.18;100011.91;5066128;28;20047;-43
2023/09/04 08:43:24;;;;;;;5.05;2.65;;;;;;;37.66;24.25;100028.84;5072252;28;20044;-43
2023/09/04 08:45:51;;;;;;;3.22;2.30;;;;;;;37.44;24.62;100032.09;5053905;28;20734;-42
2023/09/04 08:48:20;;;;;;;2.92;2.47;;;;;;;37.33;24.84;100028.19;5070550;28;20044;-44
2023/09/04 08:50:48;;;;;;;5.85;2.65;;;;;;;36.66;25.66;100010.56;5082369;28;20040;-42
2023/09/04 08:53:13;;;;;;;4.90;2.97;;;;;;;37.38;25.21;100028.38;5065295;28;20094;-45
2023/09/04 08:55:39;;;;;;;2.40;2.20;;;;;;;38.15;24.32;100027.22;5048350;28;20048;-43
2023/09/04 08:58:06;;;;;;;10.57;3.13;;;;;;;38.86;23.56;100032.13;5065465;28;20443;-46
2023/09/04 09:00:33;;;;;;;3.63;2.40;;;;;;;39.66;23.20;100040.91;5072819;28;20400;-44
2023/09/04 09:02:59;;;;;;;5.07;2.35;;;;;;;40.27;21.68;99999.66;5048427;28;20040;-43
2023/09/04 09:05:25;;;;;;;3.88;2.53;;;;;;;40.80;21.11;100024.00;5066366;28;20049;-42
2023/09/04 09:07:52;;;;;;;7.90;2.65;;;;;;;41.08;20.94;100027.88;5071697;28;20047;-42
2023/09/04 09:10:20;;;;;;;2.60;2.40;;;;;;;41.34;21.01;100028.13;5052088;28;20044;-42
2023/09/04 09:12:45;;;;;;;6.18;2.42;;;;;;;41.53;20.49;100030.66;5056348;28;20040;-44
2023/09/04 09:15:11;;;;;;;5.60;4.45;;;;;;;40.51;21.10;100022.28;5078468;28;20046;-42
2023/09/04 09:17:54;;;;;;;3.63;3.20;;;;;;;41.39;20.38;100006.38;5067628;28;20044;-44
2023/09/04 09:20:33;;;;;;;3.58;2.63;;;;;;;42.57;19.64;100031.78;5070856;28;20047;-43
2023/09/04 09:22:59;;;;;;;4.30;2.63;;;;;;;43.20;18.86;100024.91;5035917;28;20086;-42
2023/09/04 09:25:27;;;;;;;2.70;2.10;;;;;;;43.25;18.13;100006.63;5036561;28;20067;-45
2023/09/04 09:28:01;;;;;;;3.15;2.17;;;;;;;43.05;17.80;100026.38;5070098;28;20044;-42
2023/09/04 09:30:40;;;;;;;2.97;2.40;;;;;;;43.00;17.83;100025.50;5079483;28;20516;-43
2023/09/04 09:33:12;;;;;;;2.40;2.00;;;;;;;43.30;17.91;100041.44;5055778;28;20570;-42
2023/09/04 09:35:42;;;;;;;3.15;1.95;;;;;;;42.26;18.58;100038.69;5034865;28;20539;-43
2023/09/04 09:38:09;;;;;;;3.00;1.90;;;;;;;40.30;20.57;100025.63;5070195;28;20043;-42
2023/09/04 09:40:36;;;;;;;9.45;2.20;;;;;;;38.92;21.93;100026.63;5072982;28;20044;-41
2023/09/04 09:43:02;;;;;;;;;;;;;;;38.92;22.09;100029.34;5074533;28;20044;-43
2023/09/04 09:45:32;;;;;;;6.72;2.90;;;;;;;39.26;21.80;100029.72;5077100;28;19923;-41
2023/09/04 09:47:58;;;;;;;3.90;2.20;;;;;;;38.20;22.61;100032.81;5070475;28;20076;-40
2023/09/04 09:50:24;;;;;;;2.95;2.33;;;;;;;36.99;23.69;100006.88;5076857;28;20078;-40
2023/09/04 09:53:01;;;;;;;12.50;2.67;;;;;;;36.11;24.66;100038.94;5076526;28;20040;-40
2023/09/04 09:55:28;;;;;;;8.55;2.22;;;;;;;35.60;25.63;100017.03;5067548;28;20051;-41
2023/09/04 09:57:57;;;;;;;5.18;2.50;;;;;;;35.92;24.80;100024.38;5049093;28;20033;-36
2023/09/04 10:00:22;;;;;;;;;;;;;;;36.53;24.56;100019.50;5080146;28;20140;-37
2023/09/04 10:02:48;;;;;;;5.22;2.20;;;;;;;36.68;23.70;100019.31;5077714;28;20018;-37
2023/09/04 10:05:15;;;;;;;3.10;1.77;;;;;;;36.55;23.65;100024.72;5077439;28;20053;-38
2023/09/04 10:07:43;;;;;;;3.92;1.92;;;;;;;35.39;24.04;100022.59;5066442;28;20090;-38
2023/09/04 10:10:11;;;;;;;2.45;1.88;;;;;;;34.74;24.71;100024.03;5076133;28;20084;-36
2023/09/04 10:13:09;;;;;;;2.17;1.90;;;;;;;35.31;24.63;100022.81;5056176;28;20045;-38
2023/09/04 10:15:36;;;;;;;3.80;1.88;;;;;;;36.09;24.58;100032.91;5064991;28;20044;-37
2023/09/04 10:18:07;;;;;;;2.53;1.70;;;;;;;36.61;23.24;100032.00;5072160;28;20041;-38
2023/09/04 10:20:34;;;;;;;6.32;2.45;;;;;;;36.53;23.46;100011.38;5065806;28;20214;-37
2023/09/04 10:23:08;;;;;;;7.07;1.92;;;;;;;36.57;23.40;99998.25;5046852;28;20071;-36
2023/09/04 10:25:55;;;;;;;2.60;1.70;;;;;;;36.19;23.99;100005.44;5051748;28;20059;-37
2023/09/04 10:28:27;;;;;;;;;;;;;;;36.08;24.12;100028.53;5074960;28;20064;-37
2023/09/04 10:30:56;;;;;;;4.10;1.77;;;;;;;35.52;24.14;100001.00;5052747;28;19916;-38
2023/09/04 10:33:21;;;;;;;3.47;1.80;;;;;;;35.77;24.46;100031.84;5076399;28;20131;-38
2023/09/04 10:35:47;;;;;;;5.65;2.00;;;;;;;36.02;24.24;100027.47;5048446;28;20635;-37
2023/09/04 10:38:13;;;;;;;4.22;1.70;;;;;;;36.03;23.88;100029.16;5065544;28;20043;-38
2023/09/04 10:40:40;;;;;;;2.58;1.90;;;;;;;35.75;24.27;100027.72;5074755;28;20456;-36
2023/09/04 10:43:09;;;;;;;3.67;1.80;;;;;;;35.38;24.21;100032.63;5070661;28;20724;-38
2023/09/04 10:45:35;;;;;;;5.88;1.73;;;;;;;35.17;24.48;100022.72;5068383;28;20055;-38
2023/09/04 10:48:01;;;;;;;5.25;2.22;;;;;;;34.51;24.62;100039.66;5063873;28;20567;-37
2023/09/04 10:50:38;;;;;;;2.13;1.55;;;;;;;33.67;25.74;100034.16;5068455;28;20040;-38
2023/09/04 10:53:05;;;;;;;2.77;1.80;;;;;;;33.44;26.72;100036.22;5080696;28;20109;-37
2023/09/04 10:55:33;;;;;;;8.80;2.25;;;;;;;33.26;27.29;100025.84;5079188;28;20963;-37
2023/09/04 10:58:01;;;;;;;5.60;2.38;;;;;;;33.41;26.88;100029.34;5074622;28;20039;-37
2023/09/04 11:00:29;;;;;;;4.75;2.80;;;;;;;33.43;26.81;100039.94;5064445;28;20041;-39
2023/09/04 11:02:55;;;;;;;5.57;2.63;;;;;;;33.08;26.59;100025.44;5079979;28;20135;-38
2023/09/04 11:05:22;;;;;;;3.78;1.60;;;;;;;32.59;27.12;100030.56;5045100;28;20052;-37
2023/09/04 11:07:48;;;;;;;2.72;1.60;;;;;;;32.03;27.07;100013.13;5053134;28;20070;-37
2023/09/04 11:10:14;;;;;;;1.85;1.50;;;;;;;31.67;27.23;100032.56;5061778;28;20496;-38
2023/09/04 11:12:43;;;;;;;3.10;1.60;;;;;;;31.32;28.05;100022.38;5076066;28;20105;-38
2023/09/04 11:15:11;;;;;;;6.53;1.50;;;;;;;31.14;28.97;100025.34;5064113;28;20040;-38
2023/09/04 11:17:39;;;;;;;6.97;2.17;;;;;;;30.95;29.68;100034.63;5068546;28;20122;-37
2023/09/04 11:20:06;;;;;;;5.97;2.10;;;;;;;30.79;30.86;100020.44;5067324;28;20453;-38